Lakeville, Indiana
Current Conditions -  °F | °C
As of 9:21 AM on Friday 24 Oct 2014 (Local Time) from KSBN Reporting Station
Overcast Overcast  
Wind Chill: 51°   Ceiling: 3700
Heat Index: 51°   Visibility: 9mi
Dew Point: 45°   Wind: 6mph
Humidity: 80%   Direction: 230°SW
Pressure: 30.09"   Gusts: NA
Location:  41.52°N, 86.27°W
Report Text: KSBN 241321Z 23005KT 9SM SCT024 OVC037 11/07 A3009 RMK AO2 T01060072
Loading
Personal Weather Stations






























Interactive Weather Map
Tropical Storm Tracking
New forecast layout! Learn more

10-Day Weather Forecast

Advertisements
Track Severe Weather on mobile